createdAt,value
2018-03-31T00:00:29.031Z,96509.91
2018-03-31T00:02:56.774Z,96514.61
2018-03-31T00:05:24.348Z,96514.84
2018-03-31T00:07:52.656Z,96517.69
2018-03-31T00:10:23.660Z,96517.34
2018-03-31T00:12:51.822Z,96523.59
2018-03-31T00:15:19.893Z,96524.64
2018-03-31T00:17:47.503Z,96539.57
2018-03-31T00:20:15.012Z,96538.42
2018-03-31T00:22:43.383Z,96535.61
2018-03-31T00:25:11.713Z,96535.28
2018-03-31T00:27:39.484Z,96534.53
2018-03-31T00:30:07.288Z,96540.76
2018-03-31T00:32:38.136Z,96540.04
2018-03-31T00:35:05.789Z,96543.07
2018-03-31T00:37:33.344Z,96540.61
2018-03-31T00:40:00.855Z,96539.99
2018-03-31T00:42:28.622Z,96536.20
2018-03-31T00:44:56.168Z,96540.72
2018-03-31T00:47:24.345Z,96536.89
2018-03-31T00:49:51.928Z,96536.87
2018-03-31T00:52:20.248Z,96538.88
2018-03-31T00:54:47.792Z,96531.67
2018-03-31T00:57:16.003Z,96542.36
2018-03-31T00:59:43.876Z,96541.33
2018-03-31T01:02:11.539Z,96536.08
2018-03-31T01:04:39.097Z,96530.79
2018-03-31T01:07:06.701Z,96531.67
2018-03-31T01:09:34.222Z,96530.87
2018-03-31T01:12:02.247Z,96542.04
2018-03-31T01:14:29.776Z,96535.60
2018-03-31T01:16:57.929Z,96536.28
2018-03-31T01:19:25.485Z,96533.53
2018-03-31T01:21:53.014Z,96526.64
2018-03-31T01:24:20.534Z,96529.27
2018-03-31T01:26:49.569Z,96527.27
2018-03-31T01:29:17.080Z,96531.28
2018-03-31T01:31:44.615Z,96524.12
2018-03-31T01:34:12.183Z,96517.73
2018-03-31T01:36:39.851Z,96519.14
2018-03-31T01:39:07.732Z,96514.22
2018-03-31T01:41:35.593Z,96516.88
2018-03-31T01:44:03.109Z,96519.50
2018-03-31T01:46:31.444Z,96512.90
2018-03-31T01:48:59.017Z,96514.08
2018-03-31T01:51:26.552Z,96517.70
2018-03-31T01:53:54.116Z,96515.64
2018-03-31T01:56:22.216Z,96521.59
2018-03-31T01:58:51.326Z,96522.74
2018-03-31T02:01:19.699Z,96516.25
2018-03-31T02:03:47.224Z,96512.06
2018-03-31T02:06:14.748Z,96512.16
2018-03-31T02:08:42.413Z,96509.38
2018-03-31T02:11:10.732Z,96508.88
2018-03-31T02:13:38.259Z,96506.64
2018-03-31T02:16:06.080Z,96513.54
2018-03-31T02:18:33.607Z,96512.27
2018-03-31T02:21:01.142Z,96508.97
2018-03-31T02:23:28.712Z,96506.36
2018-03-31T02:25:56.484Z,96508.00
2018-03-31T02:28:24.876Z,96503.33
2018-03-31T02:30:52.418Z,96497.30
2018-03-31T02:33:20.097Z,96492.04
2018-03-31T02:35:47.669Z,96493.72
2018-03-31T02:38:15.208Z,96491.36
2018-03-31T02:40:42.812Z,96490.28
2018-03-31T02:43:11.481Z,96484.69
2018-03-31T02:45:39.540Z,96476.52
2018-03-31T02:48:07.602Z,96481.08
2018-03-31T02:50:36.100Z,96475.14
2018-03-31T02:53:04.535Z,96478.05
2018-03-31T02:55:32.072Z,96468.73
2018-03-31T02:57:59.587Z,96477.18
2018-03-31T03:00:28.508Z,96470.77
2018-03-31T03:02:57.199Z,96471.84
2018-03-31T03:05:24.941Z,96470.67
2018-03-31T03:07:54.011Z,96475.66
2018-03-31T03:10:23.151Z,96479.60
2018-03-31T03:12:50.695Z,96470.64
2018-03-31T03:15:18.218Z,96476.00
2018-03-31T03:17:45.921Z,96478.64
2018-03-31T03:20:13.771Z,96477.20
2018-03-31T03:22:41.284Z,96477.67
2018-03-31T03:25:08.883Z,96471.13
2018-03-31T03:27:36.444Z,96473.98
2018-03-31T03:30:04.545Z,96476.41
2018-03-31T03:32:32.704Z,96473.16
2018-03-31T03:35:00.281Z,96474.28
2018-03-31T03:37:27.844Z,96476.39
2018-03-31T03:39:55.920Z,96471.34
2018-03-31T03:42:23.443Z,96471.55
2018-03-31T03:44:51.547Z,96465.88
2018-03-31T03:47:19.101Z,96461.02
2018-03-31T03:49:46.616Z,96461.02
2018-03-31T03:52:14.826Z,96458.28
2018-03-31T03:54:43.275Z,96459.30
2018-03-31T03:57:10.787Z,96458.05
2018-03-31T03:59:39.064Z,96463.05
2018-03-31T04:02:07.276Z,96467.53
2018-03-31T04:04:35.353Z,96470.16
2018-03-31T04:07:04.343Z,96468.89
2018-03-31T04:09:32.485Z,96470.29
2018-03-31T04:12:00.033Z,96478.66
2018-03-31T04:14:27.538Z,96473.50
2018-03-31T04:16:55.115Z,96476.70
2018-03-31T04:19:22.835Z,96483.64
2018-03-31T04:21:51.159Z,96486.66
2018-03-31T04:24:18.688Z,96485.96
2018-03-31T04:26:46.435Z,96484.03
2018-03-31T04:29:14.768Z,96484.22
2018-03-31T04:31:42.284Z,96489.59
2018-03-31T04:34:09.808Z,96492.98
2018-03-31T04:36:38.902Z,96499.00
2018-03-31T04:39:06.576Z,96496.21
2018-03-31T04:41:34.735Z,96507.28
2018-03-31T04:44:02.850Z,96507.69
2018-03-31T04:46:30.529Z,96504.45
2018-03-31T04:48:58.041Z,96503.29
2018-03-31T04:51:26.089Z,96501.25
2018-03-31T04:53:53.607Z,96502.42
2018-03-31T04:56:21.170Z,96500.57
2018-03-31T04:58:48.741Z,96498.64
2018-03-31T05:01:17.075Z,96506.11
2018-03-31T05:03:44.597Z,96506.09
2018-03-31T05:06:12.134Z,96503.97
2018-03-31T05:08:39.808Z,96504.95
2018-03-31T05:11:07.344Z,96510.17
2018-03-31T05:13:36.423Z,96509.41
2018-03-31T05:16:04.764Z,96517.08
2018-03-31T05:18:33.724Z,96519.63
2018-03-31T05:21:01.920Z,96508.52
2018-03-31T05:23:29.499Z,96510.08
2018-03-31T05:25:57.070Z,96512.59
2018-03-31T05:28:25.392Z,96515.23
2018-03-31T05:30:53.640Z,96513.87
2018-03-31T05:33:22.700Z,96519.70
2018-03-31T05:35:50.999Z,96520.27
2018-03-31T05:38:19.217Z,96520.09
2018-03-31T05:40:46.848Z,96518.22
2018-03-31T05:43:14.584Z,96518.41
2018-03-31T05:45:42.548Z,96517.37
2018-03-31T05:48:10.112Z,96522.69
2018-03-31T05:50:37.634Z,96523.19
2018-03-31T05:53:06.464Z,96522.50
2018-03-31T05:55:34.740Z,96524.55
2018-03-31T05:58:02.302Z,96522.80
2018-03-31T06:00:30.440Z,96526.05
2018-03-31T06:02:58.299Z,96525.52
2018-03-31T06:05:26.079Z,96529.52
2018-03-31T06:07:53.652Z,96526.84
2018-03-31T06:10:21.235Z,96522.44
2018-03-31T06:12:49.004Z,96519.59
2018-03-31T06:15:17.284Z,96524.52
2018-03-31T06:17:45.604Z,96529.30
2018-03-31T06:20:13.163Z,96533.75
2018-03-31T06:22:40.736Z,96532.97
2018-03-31T06:25:08.407Z,96532.89
2018-03-31T06:27:35.934Z,96536.27
2018-03-31T06:30:03.455Z,96530.27
2018-03-31T06:32:31.004Z,96530.94
2018-03-31T06:34:58.519Z,96528.25
2018-03-31T06:37:26.480Z,96533.34
2018-03-31T06:39:54.761Z,96526.64
2018-03-31T06:42:22.286Z,96523.92
2018-03-31T06:44:50.373Z,96523.70
2018-03-31T06:47:17.903Z,96526.27
2018-03-31T06:49:46.135Z,96523.16
2018-03-31T06:52:13.865Z,96521.17
2018-03-31T06:54:41.430Z,96531.97
2018-03-31T06:57:08.948Z,96522.52
2018-03-31T06:59:36.464Z,96518.34
2018-03-31T07:02:04.063Z,96520.13
2018-03-31T07:04:31.575Z,96514.74
2018-03-31T07:06:59.098Z,96515.06
2018-03-31T07:09:26.679Z,96512.89
2018-03-31T07:11:54.451Z,96508.20
2018-03-31T07:14:23.306Z,96502.98
2018-03-31T07:16:51.003Z,96506.09
2018-03-31T07:19:19.683Z,96499.19
2018-03-31T07:21:47.189Z,96493.30
2018-03-31T07:24:14.803Z,96499.95
2018-03-31T07:26:43.065Z,96503.84
2018-03-31T07:29:10.597Z,96504.16
2018-03-31T07:31:38.179Z,96503.91
2018-03-31T07:34:06.612Z,96503.42
2018-03-31T07:36:34.180Z,96501.92
2018-03-31T07:39:01.960Z,96503.27
2018-03-31T07:41:29.545Z,96506.55
2018-03-31T07:43:57.828Z,96506.86
2018-03-31T07:46:26.000Z,96508.96
2018-03-31T07:48:53.536Z,96506.68
2018-03-31T07:51:21.087Z,96511.48
2018-03-31T07:53:48.631Z,96507.38
2018-03-31T07:56:17.384Z,96505.45
2018-03-31T07:58:44.953Z,96499.72
2018-03-31T08:01:12.468Z,96507.22
2018-03-31T08:03:40.042Z,96506.41
2018-03-31T08:06:07.596Z,96505.77
2018-03-31T08:08:35.912Z,96506.02
2018-03-31T08:11:03.841Z,96513.48
2018-03-31T08:13:31.412Z,96511.80
2018-03-31T08:15:59.468Z,96513.29
2018-03-31T08:18:26.995Z,96511.32
2018-03-31T08:20:54.533Z,96506.19
2018-03-31T08:23:23.576Z,96505.92
2018-03-31T08:25:51.200Z,96500.70
2018-03-31T08:28:19.160Z,96494.04
2018-03-31T08:30:46.728Z,96497.44
2018-03-31T08:33:14.323Z,96498.78
2018-03-31T08:35:41.841Z,96493.16
2018-03-31T08:38:09.372Z,96496.83
2018-03-31T08:40:36.920Z,96497.25
2018-03-31T08:43:05.200Z,96500.70
2018-03-31T08:45:34.705Z,96495.36
2018-03-31T08:48:02.296Z,96497.25
2018-03-31T08:50:30.404Z,96488.39
2018-03-31T08:52:58.268Z,96488.80
2018-03-31T08:55:25.988Z,96504.50
2018-03-31T08:57:57.816Z,96501.80
2018-03-31T09:00:25.483Z,96495.77
2018-03-31T09:02:53.064Z,96495.09
2018-03-31T09:05:22.946Z,96498.81
2018-03-31T09:07:50.459Z,96508.20
2018-03-31T09:10:18.647Z,96505.66
2018-03-31T09:12:46.163Z,96513.33
2018-03-31T09:15:14.517Z,96516.09
2018-03-31T09:17:42.036Z,96517.95
2018-03-31T09:20:09.553Z,96518.97
2018-03-31T09:22:37.827Z,96516.69
2018-03-31T09:25:05.620Z,96519.19
2018-03-31T09:27:35.851Z,96514.68
2018-03-31T09:30:03.368Z,96520.20
2018-03-31T09:32:32.327Z,96523.00
2018-03-31T09:34:59.913Z,96524.35
2018-03-31T09:37:27.436Z,96520.43
2018-03-31T09:40:01.238Z,96518.21
2018-03-31T09:42:28.924Z,96526.47
2018-03-31T09:44:57.119Z,96520.25
2018-03-31T09:47:26.076Z,96519.58
2018-03-31T09:49:54.154Z,96525.74
2018-03-31T09:52:21.670Z,96512.48
2018-03-31T09:54:49.228Z,96511.31
2018-03-31T09:57:16.753Z,96510.41
2018-03-31T09:59:44.352Z,96509.80
2018-03-31T10:02:12.248Z,96512.09
2018-03-31T10:04:39.772Z,96516.36
2018-03-31T10:07:08.165Z,96520.42
2018-03-31T10:09:35.783Z,96509.26
2018-03-31T10:12:03.300Z,96509.50
2018-03-31T10:14:30.840Z,96512.52
2018-03-31T10:16:58.437Z,96505.86
2018-03-31T10:19:26.166Z,96509.25
2018-03-31T10:21:53.888Z,96509.03
2018-03-31T10:24:22.964Z,96512.75
2018-03-31T10:26:50.533Z,96508.73
2018-03-31T10:29:18.146Z,96513.35
2018-03-31T10:31:46.030Z,96509.39
2018-03-31T10:34:13.547Z,96511.80
2018-03-31T10:36:41.103Z,96510.44
2018-03-31T10:39:08.640Z,96508.98
2018-03-31T10:41:36.194Z,96513.11
2018-03-31T10:44:04.696Z,96513.98
2018-03-31T10:46:32.248Z,96515.28
2018-03-31T10:48:59.770Z,96513.66
2018-03-31T10:51:27.340Z,96509.19
2018-03-31T10:53:54.872Z,96507.67
2018-03-31T10:56:22.451Z,96505.67
2018-03-31T10:58:49.969Z,96503.34
2018-03-31T11:01:18.481Z,96502.09
2018-03-31T11:03:46.050Z,96494.50
2018-03-31T11:06:13.604Z,96492.00
2018-03-31T11:08:41.148Z,96487.41
2018-03-31T11:11:08.670Z,96491.02
2018-03-31T11:13:36.940Z,96489.95
2018-03-31T11:16:04.468Z,96487.16
2018-03-31T11:18:32.025Z,96490.45
2018-03-31T11:20:59.580Z,96496.34
2018-03-31T11:23:27.099Z,96490.33
2018-03-31T11:25:54.620Z,96480.88
2018-03-31T11:28:22.608Z,96483.80
2018-03-31T11:30:50.152Z,96488.14
2018-03-31T11:33:17.924Z,96497.16
2018-03-31T11:35:45.511Z,96484.07
2018-03-31T11:38:13.807Z,96487.34
2018-03-31T11:40:41.345Z,96476.46
2018-03-31T11:43:08.944Z,96480.78
2018-03-31T11:45:37.277Z,96476.52
2018-03-31T11:48:04.844Z,96471.53
2018-03-31T11:50:33.180Z,96467.89
2018-03-31T11:53:00.697Z,96467.73
2018-03-31T11:55:28.225Z,96471.70
2018-03-31T11:57:55.807Z,96466.67
2018-03-31T12:00:23.376Z,96467.99
2018-03-31T12:02:51.407Z,96471.27
2018-03-31T12:05:19.263Z,96468.98
2018-03-31T12:07:46.828Z,96476.55
2018-03-31T12:10:15.010Z,96469.59
2018-03-31T12:12:44.080Z,96469.32
2018-03-31T12:15:11.663Z,96478.61
2018-03-31T12:17:39.184Z,96471.66
2018-03-31T12:20:07.670Z,96473.41
2018-03-31T12:22:35.669Z,96472.86
2018-03-31T12:25:03.314Z,96472.47
2018-03-31T12:27:30.837Z,96467.03
2018-03-31T12:29:58.347Z,96473.66
2018-03-31T12:32:27.836Z,96465.09
2018-03-31T12:34:55.352Z,96474.45
2018-03-31T12:37:22.940Z,96461.62
2018-03-31T12:39:50.584Z,96458.41
2018-03-31T12:42:18.399Z,96460.22
2018-03-31T12:44:45.956Z,96467.31
2018-03-31T12:47:13.661Z,96453.73
2018-03-31T12:49:43.277Z,96452.08
2018-03-31T12:52:10.402Z,96448.30
2018-03-31T12:54:37.921Z,96451.13
2018-03-31T12:57:06.546Z,96449.08
2018-03-31T12:59:34.072Z,96442.52
2018-03-31T13:02:01.644Z,96442.67
2018-03-31T13:04:29.173Z,96447.80
2018-03-31T13:06:56.778Z,96444.30
2018-03-31T13:09:26.199Z,96444.89
2018-03-31T13:11:54.332Z,96446.45
2018-03-31T13:14:23.357Z,96449.00
2018-03-31T13:16:50.885Z,96447.77
2018-03-31T13:19:19.761Z,96447.93
2018-03-31T13:21:47.456Z,96449.70
2018-03-31T13:24:21.193Z,96442.59
2018-03-31T13:26:48.860Z,96442.72
2018-03-31T13:29:16.435Z,96436.50
2018-03-31T13:31:45.085Z,96441.41
2018-03-31T13:34:13.471Z,96440.16
2018-03-31T13:36:41.016Z,96443.77
2018-03-31T13:39:08.545Z,96441.23
2018-03-31T13:41:36.628Z,96438.52
2018-03-31T13:44:04.179Z,96446.56
2018-03-31T13:46:31.785Z,96443.80
2018-03-31T13:48:59.996Z,96452.03
2018-03-31T13:51:28.147Z,96449.55
2018-03-31T13:53:55.885Z,96456.64
2018-03-31T13:56:23.636Z,96450.77
2018-03-31T13:58:51.562Z,96446.84
2018-03-31T14:01:20.432Z,96449.34
2018-03-31T14:03:48.724Z,96460.42
2018-03-31T14:06:16.336Z,96451.15
2018-03-31T14:08:43.896Z,96450.48
2018-03-31T14:11:11.408Z,96453.44
2018-03-31T14:13:39.437Z,96458.93
2018-03-31T14:16:07.165Z,96446.96
2018-03-31T14:18:35.416Z,96450.46
2018-03-31T14:21:02.928Z,96453.27
2018-03-31T14:23:31.320Z,96456.56
2018-03-31T14:25:59.828Z,96448.34
2018-03-31T14:28:27.526Z,96449.67
2018-03-31T14:30:56.571Z,96448.26
2018-03-31T14:33:24.875Z,96446.41
2018-03-31T14:35:52.400Z,96452.08
2018-03-31T14:38:19.993Z,96457.91
2018-03-31T14:40:53.675Z,96459.09
2018-03-31T14:43:21.283Z,96455.73
2018-03-31T14:45:48.808Z,96452.91
2018-03-31T14:48:17.688Z,96451.84
2018-03-31T14:50:45.237Z,96457.66
2018-03-31T14:53:12.816Z,96452.48
2018-03-31T14:55:40.375Z,96449.53
2018-03-31T14:58:08.125Z,96443.31
2018-03-31T15:00:35.841Z,96451.14
2018-03-31T15:03:03.454Z,96449.00
2018-03-31T15:05:31.032Z,96453.23
2018-03-31T15:07:58.544Z,96449.59
2018-03-31T15:10:26.672Z,96445.62
2018-03-31T15:12:54.938Z,96448.87
2018-03-31T15:15:22.460Z,96450.47
2018-03-31T15:17:51.840Z,96446.95
2018-03-31T15:20:20.912Z,96450.28
2018-03-31T15:22:48.428Z,96447.34
2018-03-31T15:25:15.997Z,96446.64
2018-03-31T15:27:43.548Z,96449.87
2018-03-31T15:30:11.507Z,96459.27
2018-03-31T15:32:40.996Z,96465.80
2018-03-31T15:35:08.772Z,96460.02
2018-03-31T15:37:36.747Z,96454.97
2018-03-31T15:40:05.004Z,96460.03
2018-03-31T15:42:34.044Z,96458.48
2018-03-31T15:45:01.588Z,96458.61
2018-03-31T15:47:29.868Z,96457.40
2018-03-31T15:49:58.049Z,96459.64
2018-03-31T15:52:25.847Z,96455.37
2018-03-31T15:54:55.323Z,96457.63
2018-03-31T15:57:23.039Z,96455.73
2018-03-31T15:59:50.821Z,96452.09
2018-03-31T16:02:19.440Z,96453.17
2018-03-31T16:04:46.972Z,96452.69
2018-03-31T16:07:15.328Z,96457.72
2018-03-31T16:09:43.620Z,96456.56
2018-03-31T16:12:14.260Z,96453.76
2018-03-31T16:14:43.363Z,96456.89
2018-03-31T16:17:10.936Z,96459.79
2018-03-31T16:19:39.173Z,96467.36
2018-03-31T16:22:06.753Z,96467.83
2018-03-31T16:24:35.602Z,96480.67
2018-03-31T16:27:03.209Z,96478.72
2018-03-31T16:29:30.722Z,96481.78
2018-03-31T16:31:58.923Z,96485.85
2018-03-31T16:34:26.867Z,96487.84
2018-03-31T16:36:54.532Z,96484.23
2018-03-31T16:39:22.149Z,96488.39
2018-03-31T16:41:49.730Z,96489.23
2018-03-31T16:44:17.252Z,96484.30
2018-03-31T16:46:45.432Z,96487.24
2018-03-31T16:49:14.139Z,96488.30
2018-03-31T16:51:41.739Z,96495.61
2018-03-31T16:54:09.317Z,96498.23
2018-03-31T16:56:36.907Z,96503.97
2018-03-31T16:59:05.920Z,96499.09
2018-03-31T17:01:33.617Z,96509.33
2018-03-31T17:04:01.272Z,96502.50
2018-03-31T17:06:28.775Z,96500.50
2018-03-31T17:08:56.332Z,96513.80
2018-03-31T17:11:24.381Z,96510.47
2018-03-31T17:13:51.939Z,96513.44
2018-03-31T17:16:19.943Z,96516.61
2018-03-31T17:18:47.625Z,96520.30
2018-03-31T17:21:15.289Z,96516.48
2018-03-31T17:23:42.873Z,96526.16
2018-03-31T17:26:10.755Z,96525.80
2018-03-31T17:28:38.312Z,96522.05
2018-03-31T17:31:05.988Z,96523.77
2018-03-31T17:33:34.816Z,96532.80
2018-03-31T17:36:02.888Z,96531.19
2018-03-31T17:38:30.562Z,96530.48
2018-03-31T17:40:58.088Z,96537.33
2018-03-31T17:43:25.752Z,96543.66
2018-03-31T17:45:54.548Z,96539.05
2018-03-31T17:48:22.164Z,96544.87
2018-03-31T17:50:49.685Z,96539.69
2018-03-31T17:53:17.716Z,96543.13
2018-03-31T17:55:46.216Z,96543.46
2018-03-31T17:58:13.732Z,96549.96
2018-03-31T18:00:41.579Z,96549.45
2018-03-31T18:03:09.155Z,96553.75
2018-03-31T18:05:37.762Z,96543.84
2018-03-31T18:08:05.276Z,96553.04
2018-03-31T18:10:33.179Z,96552.28
2018-03-31T18:13:00.836Z,96560.20
2018-03-31T18:15:28.367Z,96564.33
2018-03-31T18:17:57.049Z,96566.02
2018-03-31T18:20:24.634Z,96578.27
2018-03-31T18:22:52.169Z,96579.43
2018-03-31T18:25:19.675Z,96581.08
2018-03-31T18:27:47.216Z,96584.38
2018-03-31T18:30:15.292Z,96585.54
2018-03-31T18:32:42.801Z,96595.34
2018-03-31T18:35:10.339Z,96591.31
2018-03-31T18:37:44.884Z,96598.98
2018-03-31T18:40:12.454Z,96595.76
2018-03-31T18:42:40.775Z,96598.27
2018-03-31T18:45:08.812Z,96606.47
2018-03-31T18:47:36.345Z,96606.44
2018-03-31T18:50:07.316Z,96612.16
2018-03-31T18:52:34.915Z,96612.19
2018-03-31T18:55:02.748Z,96608.25
2018-03-31T18:57:30.464Z,96609.98
2018-03-31T18:59:58.302Z,96618.23
2018-03-31T19:02:25.891Z,96620.34
2018-03-31T19:04:54.483Z,96629.27
2018-03-31T19:07:22.400Z,96632.87
2018-03-31T19:09:49.934Z,96630.30
2018-03-31T19:12:17.940Z,96632.87
2018-03-31T19:14:45.775Z,96635.44
2018-03-31T19:17:15.047Z,96638.71
2018-03-31T19:19:42.694Z,96640.33
2018-03-31T19:22:10.290Z,96640.25
2018-03-31T19:24:45.331Z,96649.05
2018-03-31T19:27:12.856Z,96650.27
2018-03-31T19:29:40.487Z,96654.63
2018-03-31T19:32:08.357Z,96657.09
2018-03-31T19:34:35.887Z,96649.78
2018-03-31T19:37:03.412Z,96654.75
2018-03-31T19:39:36.592Z,96659.19
2018-03-31T19:42:04.632Z,96663.14
2018-03-31T19:44:32.527Z,96670.28
2018-03-31T19:47:00.280Z,96669.75
2018-03-31T19:49:27.804Z,96674.78
2018-03-31T19:51:55.365Z,96680.08
2018-03-31T19:54:23.256Z,96679.39
2018-03-31T19:56:50.779Z,96675.82
2018-03-31T19:59:18.320Z,96676.69
2018-03-31T20:01:45.893Z,96681.19
2018-03-31T20:04:13.755Z,96683.86
2018-03-31T20:06:41.279Z,96681.38
2018-03-31T20:09:09.513Z,96688.39
2018-03-31T20:11:37.739Z,96695.55
2018-03-31T20:14:05.342Z,96698.56
2018-03-31T20:16:33.647Z,96703.00
2018-03-31T20:19:01.180Z,96703.62
2018-03-31T20:21:28.899Z,96707.70
2018-03-31T20:23:57.224Z,96707.49
2018-03-31T20:26:25.019Z,96706.97
2018-03-31T20:28:52.555Z,96711.40
2018-03-31T20:31:20.872Z,96709.28
2018-03-31T20:33:49.004Z,96716.09
2018-03-31T20:36:16.539Z,96716.30
2018-03-31T20:38:44.907Z,96718.84
2018-03-31T20:41:12.436Z,96723.51
2018-03-31T20:43:40.599Z,96726.53
2018-03-31T20:46:08.860Z,96724.16
2018-03-31T20:48:36.979Z,96724.60
2018-03-31T20:51:04.524Z,96730.16
2018-03-31T20:53:32.924Z,96726.53
2018-03-31T20:56:01.208Z,96732.36
2018-03-31T20:58:29.060Z,96728.63
2018-03-31T21:01:01.000Z,96728.70
2018-03-31T21:03:30.463Z,96738.05
2018-03-31T21:05:58.356Z,96733.09
2018-03-31T21:08:25.973Z,96734.16
2018-03-31T21:10:53.956Z,96730.68
2018-03-31T21:13:21.659Z,96729.98
2018-03-31T21:15:49.224Z,96735.23
2018-03-31T21:18:16.744Z,96735.94
2018-03-31T21:20:44.991Z,96741.82
2018-03-31T21:23:12.527Z,96743.61
2018-03-31T21:25:40.799Z,96750.05
2018-03-31T21:28:09.143Z,96749.77
2018-03-31T21:30:36.952Z,96751.92
2018-03-31T21:33:05.144Z,96754.55
2018-03-31T21:35:32.707Z,96757.77
2018-03-31T21:38:00.868Z,96755.70
2018-03-31T21:40:28.444Z,96756.94
2018-03-31T21:42:56.729Z,96760.80
2018-03-31T21:45:24.252Z,96764.45
2018-03-31T21:47:52.461Z,96764.87
2018-03-31T21:50:20.607Z,96757.35
2018-03-31T21:52:48.250Z,96765.55
2018-03-31T21:55:16.515Z,96764.18
2018-03-31T21:57:44.864Z,96769.27
2018-03-31T22:00:13.079Z,96770.94
2018-03-31T22:02:40.596Z,96772.69
2018-03-31T22:05:08.803Z,96771.60
2018-03-31T22:07:36.556Z,96772.77
2018-03-31T22:10:04.413Z,96775.30
2018-03-31T22:12:32.000Z,96775.80
2018-03-31T22:15:05.754Z,96772.97
2018-03-31T22:17:33.463Z,96781.03
2018-03-31T22:20:01.785Z,96781.92
2018-03-31T22:22:29.355Z,96780.23
2018-03-31T22:24:57.359Z,96784.91
2018-03-31T22:27:26.836Z,96792.05
2018-03-31T22:29:54.412Z,96792.89
2018-03-31T22:32:22.145Z,96793.39
2018-03-31T22:34:49.772Z,96800.41
2018-03-31T22:37:17.459Z,96803.23
2018-03-31T22:39:44.965Z,96802.55
2018-03-31T22:42:13.011Z,96800.42
2018-03-31T22:44:40.524Z,96809.06
2018-03-31T22:47:08.593Z,96815.69
2018-03-31T22:49:37.670Z,96820.76
2018-03-31T22:52:05.187Z,96821.73
2018-03-31T22:54:32.699Z,96825.23
2018-03-31T22:57:00.276Z,96833.52
2018-03-31T22:59:28.556Z,96826.98
2018-03-31T23:01:56.077Z,96835.38
2018-03-31T23:04:23.659Z,96835.94
2018-03-31T23:06:53.214Z,96840.44
2018-03-31T23:09:20.793Z,96838.56
2018-03-31T23:11:48.356Z,96834.20
2018-03-31T23:14:19.740Z,96835.73
2018-03-31T23:16:47.255Z,96835.34
2018-03-31T23:19:16.208Z,96837.39
2018-03-31T23:21:43.779Z,96839.73
2018-03-31T23:24:11.300Z,96845.00
2018-03-31T23:26:38.859Z,96847.24
2018-03-31T23:29:07.068Z,96843.24
2018-03-31T23:31:35.049Z,96850.73
2018-03-31T23:34:02.712Z,96853.27
2018-03-31T23:36:30.936Z,96852.87
2018-03-31T23:38:58.767Z,96855.41
2018-03-31T23:41:26.618Z,96864.29
2018-03-31T23:43:54.176Z,96866.32
2018-03-31T23:46:21.694Z,96870.13
2018-03-31T23:48:55.477Z,96869.13
2018-03-31T23:51:23.003Z,96876.45
2018-03-31T23:53:50.552Z,96871.98
2018-03-31T23:56:19.503Z,96869.94
2018-03-31T23:58:47.016Z,96867.77
